Time;durP1;ratioP1;P1;durP2;ratioP2;P2;SDS_P1;SDS_P2;PMS_P1;PMS_P2;Temp;Humidity;BMP_temperature;BMP_pressure;BME280_temperature;BME280_humidity;BME280_pressure;Samples;Min_cycle;Max_cycle;Signal;HPM_P1;HPM_P2
2023/01/28 00:01:16;;;;;;;22.10;13.60;;;;;;;-1.25;100.00;99656.44;6154316;23;20586;-81
2023/01/28 00:03:43;;;;;;;23.90;14.47;;;;;;;-1.27;100.00;99648.72;6154043;23;20211;-83
2023/01/28 00:06:14;;;;;;;25.50;14.47;;;;;;;-1.17;100.00;99648.69;6153465;23;20210;-86
2023/01/28 00:08:40;;;;;;;25.47;14.87;;;;;;;-1.21;100.00;99649.94;6154302;23;20226;-83
2023/01/28 00:11:10;;;;;;;24.57;15.13;;;;;;;-1.27;100.00;99647.88;6155361;23;20238;-86
2023/01/28 00:13:37;;;;;;;23.33;14.37;;;;;;;-1.30;100.00;99653.41;6154784;23;20207;-85
2023/01/28 00:16:07;;;;;;;22.47;14.50;;;;;;;-1.24;100.00;99651.06;6157191;23;20281;-85
2023/01/28 00:18:34;;;;;;;20.67;13.60;;;;;;;-1.33;100.00;99649.28;6154104;23;20203;-84
2023/01/28 00:21:03;;;;;;;22.07;14.37;;;;;;;-1.29;100.00;99653.28;6154229;23;20215;-84
2023/01/28 00:23:32;;;;;;;23.63;14.23;;;;;;;-1.22;100.00;99643.88;6158760;23;20206;-82
2023/01/28 00:26:00;;;;;;;22.53;13.93;;;;;;;-1.29;100.00;99655.06;6154635;23;20226;-83
2023/01/28 00:28:27;;;;;;;20.37;13.17;;;;;;;-1.41;100.00;99652.63;6156104;23;20593;-84
2023/01/28 00:30:54;;;;;;;26.07;14.70;;;;;;;-1.47;100.00;99647.94;6155791;23;20234;-89
2023/01/28 00:33:22;;;;;;;21.50;13.83;;;;;;;-1.35;100.00;99648.59;6155545;23;20202;-82
2023/01/28 00:35:59;;;;;;;22.67;13.97;;;;;;;-1.33;100.00;99641.41;6132148;23;20199;-84
2023/01/28 00:38:27;;;;;;;21.53;13.17;;;;;;;-1.31;100.00;99647.34;6153884;23;20206;-79
2023/01/28 00:40:54;;;;;;;22.57;13.87;;;;;;;-1.27;100.00;99651.34;6154921;23;20190;-79
2023/01/28 00:43:22;;;;;;;21.10;13.07;;;;;;;-1.27;100.00;99642.63;6155765;23;20257;-80
2023/01/28 00:45:48;;;;;;;19.73;13.63;;;;;;;-1.24;100.00;99642.34;6155746;23;20277;-80
2023/01/28 00:48:16;;;;;;;22.30;13.30;;;;;;;-1.31;100.00;99636.84;6186106;23;20209;-84
2023/01/28 00:50:44;;;;;;;21.23;13.10;;;;;;;-1.29;100.00;99642.75;6185944;23;20206;-80
2023/01/28 00:53:11;;;;;;;19.00;13.40;;;;;;;-1.37;100.00;99646.13;6209185;23;20210;-80
2023/01/28 00:55:37;;;;;;;22.50;13.70;;;;;;;-1.38;100.00;99641.84;6185614;23;20210;-80
2023/01/28 00:58:04;;;;;;;20.37;13.17;;;;;;;-1.29;100.00;99639.31;6185052;23;20293;-81
2023/01/28 01:00:31;;;;;;;19.87;13.00;;;;;;;-1.31;100.00;99631.59;6186160;23;20202;-79
2023/01/28 01:02:58;;;;;;;20.70;12.40;;;;;;;-1.26;100.00;99644.28;6185589;23;20570;-80
2023/01/28 01:05:25;;;;;;;22.60;13.40;;;;;;;-1.26;100.00;99652.19;6184201;23;20244;-82
2023/01/28 01:07:51;;;;;;;21.17;13.77;;;;;;;-1.24;100.00;99653.69;6184054;23;20237;-80
2023/01/28 01:10:19;;;;;;;22.67;14.27;;;;;;;-1.29;100.00;99657.69;6185343;23;20206;-80
2023/01/28 01:12:47;;;;;;;21.07;13.23;;;;;;;-1.25;100.00;99657.28;6183550;23;20202;-81
2023/01/28 01:15:14;;;;;;;23.47;13.70;;;;;;;-1.25;100.00;99659.06;6182555;23;20241;-81
2023/01/28 01:17:44;;;;;;;18.97;13.47;;;;;;;-1.23;100.00;99655.34;6182883;23;20289;-80
2023/01/28 01:20:14;;;;;;;22.07;14.23;;;;;;;-1.34;100.00;99658.13;6182791;23;20212;-80
2023/01/28 01:22:41;;;;;;;21.93;14.13;;;;;;;-1.34;100.00;99658.97;6185376;23;20309;-81
2023/01/28 01:25:08;;;;;;;22.23;14.53;;;;;;;-1.31;100.00;99665.75;6183509;23;20210;-80
2023/01/28 01:27:35;;;;;;;21.40;13.27;;;;;;;-1.20;100.00;99667.34;6184061;23;20206;-84
2023/01/28 01:30:02;;;;;;;20.57;13.27;;;;;;;-1.13;100.00;99668.47;6183966;23;20230;-81
2023/01/28 01:32:30;;;;;;;21.63;13.80;;;;;;;-1.22;100.00;99670.16;6183850;23;20602;-82
2023/01/28 01:34:57;;;;;;;21.23;13.00;;;;;;;-1.26;100.00;99660.88;6184836;23;20210;-86
2023/01/28 01:37:24;;;;;;;21.63;13.13;;;;;;;-1.20;100.00;99660.31;6186527;23;20214;-86
2023/01/28 01:39:51;;;;;;;22.40;14.07;;;;;;;-1.21;100.00;99663.09;6134582;23;20526;-81
2023/01/28 01:42:18;;;;;;;21.70;13.33;;;;;;;-1.20;100.00;99664.72;6183413;23;20241;-81
2023/01/28 01:44:54;;;;;;;24.37;14.57;;;;;;;-1.14;100.00;99669.41;6157960;23;20206;-82
2023/01/28 01:47:26;;;;;;;25.33;15.20;;;;;;;-1.20;100.00;99672.63;6187044;23;20711;-84
2023/01/28 01:49:54;;;;;;;22.93;13.90;;;;;;;-1.25;100.00;99667.78;6162111;23;20236;-84
2023/01/28 01:52:25;;;;;;;23.80;13.60;;;;;;;-1.41;100.00;99671.03;6163501;23;20260;-86
2023/01/28 01:54:57;;;;;;;24.00;14.77;;;;;;;-1.24;100.00;99663.38;6184044;23;20600;-80
2023/01/28 01:57:27;;;;;;;27.30;15.00;;;;;;;-1.14;100.00;99667.63;6208171;23;20237;-81
2023/01/28 01:59:54;;;;;;;23.43;14.47;;;;;;;-1.23;100.00;99659.78;6184749;23;20237;-81
2023/01/28 02:02:22;;;;;;;25.43;15.60;;;;;;;-1.33;100.00;99667.69;6208772;23;20236;-81
2023/01/28 02:04:49;;;;;;;26.50;15.80;;;;;;;-1.31;100.00;99667.56;6189090;23;20233;-81
2023/01/28 02:07:16;;;;;;;20.77;14.30;;;;;;;-1.23;100.00;99665.03;6190392;23;20257;-81
2023/01/28 02:09:43;;;;;;;21.77;14.40;;;;;;;-1.18;100.00;99670.69;6188586;23;20214;-81
2023/01/28 02:12:16;;;;;;;22.27;14.40;;;;;;;-1.07;100.00;99673.13;6187179;23;20549;-81
2023/01/28 02:14:47;;;;;;;23.87;15.17;;;;;;;-1.18;100.00;99665.44;6160515;23;20277;-81
2023/01/28 02:17:14;;;;;;;24.03;15.47;;;;;;;-1.22;100.00;99670.16;6161639;23;20206;-81
2023/01/28 02:19:50;;;;;;;23.17;14.63;;;;;;;-1.30;100.00;99666.56;6189717;23;20257;-83
2023/01/28 02:22:25;;;;;;;26.10;15.47;;;;;;;-1.30;100.00;99669.19;6196991;23;20194;-82
2023/01/28 02:25:10;;;;;;;24.23;14.50;;;;;;;-1.25;100.00;99675.69;6223219;23;20274;-86
2023/01/28 02:27:48;;;;;;;24.30;14.57;;;;;;;-1.11;100.00;99674.38;6213673;23;20214;-84
2023/01/28 02:30:21;;;;;;;23.50;15.13;;;;;;;-1.24;100.00;99669.44;6162599;23;20212;-85
2023/01/28 02:32:59;;;;;;;27.10;14.87;;;;;;;-1.23;100.00;99663.22;6214945;23;20214;-86
2023/01/28 02:35:40;;;;;;;24.17;15.37;;;;;;;-1.17;100.00;99672.34;6210684;23;20214;-84
2023/01/28 02:38:10;;;;;;;26.03;14.70;;;;;;;-1.28;100.00;99654.13;6171301;23;20206;-84
2023/01/28 02:43:42;;;;;;;25.93;15.13;;;;;;;-1.22;100.00;99656.19;6183980;23;20210;-79
2023/01/28 02:49:13;;;;;;;24.23;14.37;;;;;;;-1.27;100.00;99646.09;6183017;23;20217;-80
2023/01/28 02:51:49;;;;;;;24.23;15.27;;;;;;;-1.29;100.00;99663.78;6184606;23;20206;-80
2023/01/28 02:54:34;;;;;;;23.83;15.33;;;;;;;-1.39;100.00;99657.72;6182792;23;20209;-80
2023/01/28 02:57:38;;;;;;;24.43;15.10;;;;;;;-1.29;100.00;99666.44;6183415;23;20604;-80
2023/01/28 03:00:22;;;;;;;23.57;13.37;;;;;;;-1.27;100.00;99668.91;6183203;23;20194;-80
2023/01/28 03:02:58;;;;;;;24.17;16.10;;;;;;;-1.23;100.00;99662.41;6158785;23;20655;-80
2023/01/28 03:05:30;;;;;;;25.13;15.23;;;;;;;-1.27;100.00;99666.28;6158384;23;20210;-80
2023/01/28 03:07:58;;;;;;;24.87;15.23;;;;;;;-1.48;100.00;99669.94;6183015;23;20284;-79
2023/01/28 03:10:25;;;;;;;25.70;15.40;;;;;;;-1.43;100.00;99669.50;6184050;23;20210;-78
2023/01/28 03:38:41;;;;;;;27.43;17.03;;;;;;;-1.60;100.00;99678.97;6182303;23;20245;-79
2023/01/28 03:41:11;;;;;;;26.87;16.10;;;;;;;-1.51;100.00;99678.13;6159287;23;20190;-79
2023/01/28 03:43:40;;;;;;;27.13;15.63;;;;;;;-1.54;100.00;99682.81;6158378;23;20277;-80
2023/01/28 03:46:06;;;;;;;29.10;15.83;;;;;;;-1.56;100.00;99682.97;6157721;23;20206;-80
2023/01/28 03:48:33;;;;;;;29.67;16.27;;;;;;;-1.54;100.00;99682.81;6195300;23;20664;-80
2023/01/28 03:51:05;;;;;;;25.93;16.30;;;;;;;-1.58;100.00;99695.41;6187965;23;20204;-82
2023/01/28 03:53:32;;;;;;;22.83;13.67;;;;;;;-1.63;100.00;99694.19;6214886;23;20232;-83
2023/01/28 03:55:58;;;;;;;24.93;16.33;;;;;;;-1.68;100.00;99693.78;6163837;23;20662;-84
2023/01/28 03:58:39;;;;;;;29.60;16.63;;;;;;;-1.65;100.00;99691.69;6198598;23;20193;-79
2023/01/28 04:01:05;;;;;;;24.13;15.10;;;;;;;-1.61;100.00;99689.59;6187906;23;20211;-80
2023/01/28 04:03:32;;;;;;;27.73;16.80;;;;;;;-1.60;100.00;99691.25;6214822;23;20254;-80
2023/01/28 04:06:05;;;;;;;28.47;15.97;;;;;;;-1.65;100.00;99701.38;6189544;23;20259;-78
2023/01/28 04:09:04;;;;;;;27.67;16.33;;;;;;;-1.80;100.00;99695.69;6214382;23;20213;-79
2023/01/28 04:11:51;;;;;;;27.77;16.13;;;;;;;-1.69;100.00;99700.81;6214382;23;20232;-80
2023/01/28 04:14:26;;;;;;;26.77;15.73;;;;;;;-1.69;100.00;99692.94;6189078;23;20219;-80
2023/01/28 04:16:57;;;;;;;28.53;16.93;;;;;;;-1.74;100.00;99686.44;6189565;23;20284;-79
2023/01/28 04:19:25;;;;;;;28.97;17.17;;;;;;;-1.69;100.00;99692.94;6214284;23;20605;-80
2023/01/28 04:21:53;;;;;;;28.37;16.57;;;;;;;-1.73;100.00;99691.56;6189363;23;20255;-80
2023/01/28 04:24:21;;;;;;;27.07;16.53;;;;;;;-1.78;100.00;99688.53;6188802;23;20267;-80
2023/01/28 04:26:48;;;;;;;28.30;16.50;;;;;;;-1.81;100.00;99709.78;6189541;23;20224;-80
2023/01/28 04:29:14;;;;;;;29.37;17.13;;;;;;;-1.74;100.00;99697.78;6214646;23;20209;-80
2023/01/28 04:31:41;;;;;;;28.03;16.43;;;;;;;-1.85;100.00;99698.75;6189144;23;20654;-79
2023/01/28 04:34:32;;;;;;;27.70;16.33;;;;;;;-1.85;100.00;99698.75;6169350;23;20197;-79
2023/01/28 04:37:20;;;;;;;26.47;15.83;;;;;;;-1.75;100.00;99695.28;6189226;23;20209;-79
2023/01/28 04:40:12;;;;;;;27.13;16.50;;;;;;;-1.84;100.00;99700.41;6168784;23;20212;-79
2023/01/28 04:42:41;;;;;;;28.83;16.43;;;;;;;-1.83;100.00;99701.25;6188751;23;20289;-80
2023/01/28 04:45:17;;;;;;;27.23;16.37;;;;;;;-1.74;100.00;99699.56;6214127;23;20216;-79
2023/01/28 04:47:58;;;;;;;29.70;18.00;;;;;;;-1.86;100.00;99712.84;6214054;23;20229;-79
2023/01/28 04:50:45;;;;;;;27.97;16.47;;;;;;;-1.87;100.00;99705.13;6188710;23;20540;-79
2023/01/28 04:53:38;;;;;;;28.07;16.67;;;;;;;-1.89;100.00;99704.41;6211005;23;20229;-80
2023/01/28 04:56:06;;;;;;;28.47;17.60;;;;;;;-1.87;100.00;99707.75;6213988;23;20246;-79
2023/01/28 04:58:34;;;;;;;28.07;17.30;;;;;;;-1.86;100.00;99709.38;6216174;23;20205;-79
2023/01/28 05:01:05;;;;;;;28.30;17.03;;;;;;;-1.74;100.00;99712.72;6214193;23;20205;-80
2023/01/28 05:03:31;;;;;;;28.87;17.40;;;;;;;-1.84;100.00;99713.53;6189113;23;20581;-79
2023/01/28 05:06:03;;;;;;;26.73;16.37;;;;;;;-1.79;100.00;99707.88;6211970;23;20692;-78
2023/01/28 05:08:37;;;;;;;30.00;18.03;;;;;;;-1.74;100.00;99710.91;6189030;23;20211;-80
2023/01/28 05:11:03;;;;;;;28.07;17.20;;;;;;;-1.75;100.00;99719.75;6215287;23;20255;-79
2023/01/28 05:13:30;;;;;;;28.30;16.67;;;;;;;-1.87;100.00;99710.38;6188116;23;20280;-80
2023/01/28 05:15:57;;;;;;;26.47;16.43;;;;;;;-1.87;100.00;99726.13;6215525;23;20205;-79
2023/01/28 05:18:23;;;;;;;28.23;16.07;;;;;;;-1.83;100.00;99717.84;6164151;23;20223;-80
2023/01/28 05:21:02;;;;;;;28.10;16.23;;;;;;;-1.75;100.00;99718.91;6166692;23;20216;-79
2023/01/28 05:23:30;;;;;;;28.83;16.87;;;;;;;-1.85;100.00;99709.25;6188625;23;20225;-80
2023/01/28 05:25:58;;;;;;;28.00;16.43;;;;;;;-1.62;100.00;99712.41;6215418;23;20224;-81
2023/01/28 05:28:25;;;;;;;27.23;16.67;;;;;;;-1.72;100.00;99708.97;6188357;23;20744;-79
2023/01/28 05:30:52;;;;;;;28.03;16.43;;;;;;;-1.81;100.00;99713.25;6162990;23;20217;-79
2023/01/28 05:33:18;;;;;;;26.30;15.43;;;;;;;-1.64;100.00;99718.78;6188693;23;20213;-79
2023/01/28 05:35:45;;;;;;;27.43;16.87;;;;;;;-1.67;100.00;99722.50;6215321;23;20284;-80
2023/01/28 05:38:12;;;;;;;28.17;17.43;;;;;;;-1.81;100.00;99722.94;6187916;23;20240;-81
2023/01/28 05:40:41;;;;;;;29.03;16.40;;;;;;;-1.76;100.00;99718.09;6214005;23;20240;-79
2023/01/28 05:43:07;;;;;;;23.97;13.73;;;;;;;-1.64;100.00;99727.50;6188752;23;20206;-80
2023/01/28 05:45:42;;;;;;;27.30;15.60;;;;;;;-1.65;100.00;99727.63;6188646;23;20201;-80
2023/01/28 05:48:17;;;;;;;27.77;16.53;;;;;;;-1.73;100.00;99727.50;6190397;23;20220;-80
2023/01/28 05:51:04;;;;;;;30.97;17.17;;;;;;;-1.72;100.00;99726.50;6188839;23;20215;-80
2023/01/28 05:53:33;;;;;;;26.60;16.27;;;;;;;-1.71;100.00;99729.00;6215208;23;20224;-79
2023/01/28 05:56:00;;;;;;;25.33;15.57;;;;;;;-1.63;100.00;99730.97;6188819;23;20209;-79
2023/01/28 05:58:30;;;;;;;26.43;16.47;;;;;;;-1.74;100.00;99736.34;6163670;23;20201;-80
2023/01/28 06:01:01;;;;;;;27.57;16.57;;;;;;;-1.77;100.00;99725.13;6215637;23;20666;-80
2023/01/28 06:03:35;;;;;;;27.17;15.47;;;;;;;-1.71;100.00;99729.00;6165547;23;20696;-80
2023/01/28 06:06:02;;;;;;;30.50;17.23;;;;;;;-1.73;100.00;99730.97;6188561;23;20588;-80
2023/01/28 06:08:30;;;;;;;31.10;17.57;;;;;;;-1.77;100.00;99729.56;6188406;23;20247;-80
2023/01/28 06:10:57;;;;;;;25.13;15.27;;;;;;;-1.75;100.00;99734.69;6202396;23;20212;-80
2023/01/28 06:13:24;;;;;;;26.07;15.80;;;;;;;-1.74;100.00;99736.34;6213450;23;20267;-80
2023/01/28 06:16:13;;;;;;;26.47;15.33;;;;;;;-1.66;100.00;99741.72;6212276;23;20682;-81
2023/01/28 06:18:59;;;;;;;23.93;14.50;;;;;;;-1.68;100.00;99746.31;6214977;23;20228;-80
2023/01/28 06:21:26;;;;;;;24.63;14.60;;;;;;;-1.64;100.00;99739.81;6163519;23;20259;-80
2023/01/28 06:23:56;;;;;;;25.17;15.60;;;;;;;-1.69;100.00;99749.91;6213295;23;20658;-81
2023/01/28 06:26:23;;;;;;;24.90;14.97;;;;;;;-1.74;100.00;99752.94;6212894;23;20205;-83
2023/01/28 06:28:50;;;;;;;26.80;14.47;;;;;;;-1.62;100.00;99754.44;6213359;23;20213;-80
2023/01/28 06:31:17;;;;;;;23.90;15.33;;;;;;;-1.73;100.00;99769.53;6215058;23;20225;-80
2023/01/28 06:33:43;;;;;;;27.50;15.20;;;;;;;-1.52;100.00;99757.06;6214975;23;20229;-81
2023/01/28 06:36:10;;;;;;;22.23;14.37;;;;;;;-1.63;100.00;99758.03;6214245;23;20663;-82
2023/01/28 06:38:37;;;;;;;23.43;14.37;;;;;;;-1.51;100.00;99767.44;6214936;23;20236;-80
2023/01/28 06:41:04;;;;;;;23.57;13.97;;;;;;;-1.56;100.00;99766.22;6163742;23;20540;-81
2023/01/28 06:43:30;;;;;;;24.30;15.40;;;;;;;-1.58;100.00;99771.59;6215305;23;20211;-80
2023/01/28 06:45:57;;;;;;;20.80;13.37;;;;;;;-1.62;100.00;99770.22;6188395;23;20678;-80
2023/01/28 06:48:25;;;;;;;25.37;14.77;;;;;;;-1.61;100.00;99774.50;6212946;23;20272;-81
2023/01/28 06:50:51;;;;;;;22.43;14.40;;;;;;;-1.54;100.00;99770.34;6189404;23;20181;-81
2023/01/28 06:53:19;;;;;;;22.27;13.47;;;;;;;-1.48;100.00;99774.22;6188520;23;20202;-80
2023/01/28 06:55:45;;;;;;;23.60;14.17;;;;;;;-1.55;100.00;99775.75;6214623;23;20276;-81
2023/01/28 06:58:12;;;;;;;23.07;14.03;;;;;;;-1.59;100.00;99769.94;6217499;23;20232;-83
2023/01/28 07:00:39;;;;;;;23.10;14.63;;;;;;;-1.46;100.00;99773.13;6219196;23;20240;-85
2023/01/28 07:03:06;;;;;;;23.90;14.87;;;;;;;-1.51;100.00;99780.59;6217448;23;20205;-82
2023/01/28 07:05:33;;;;;;;21.80;13.73;;;;;;;-1.41;100.00;99780.59;6221218;23;20217;-82
2023/01/28 07:08:01;;;;;;;23.90;15.07;;;;;;;-1.50;100.00;99771.75;6169124;23;20293;-82
2023/01/28 07:10:28;;;;;;;23.33;14.33;;;;;;;-1.38;100.00;99775.03;6168999;23;20205;-86
2023/01/28 07:12:55;;;;;;;22.63;13.73;;;;;;;-1.35;100.00;99782.63;6216304;23;20213;-83
2023/01/28 07:15:21;;;;;;;21.90;13.43;;;;;;;-1.28;100.00;99775.84;6201140;23;20221;-83
2023/01/28 07:17:48;;;;;;;21.43;13.10;;;;;;;-1.26;100.00;99778.34;6189359;23;20213;-84
2023/01/28 07:20:15;;;;;;;22.13;13.50;;;;;;;-1.09;100.00;99786.34;6189915;23;20263;-83
2023/01/28 07:22:44;;;;;;;22.07;13.43;;;;;;;-1.17;100.00;99775.72;6215716;23;20276;-84
2023/01/28 07:25:12;;;;;;;20.90;11.93;;;;;;;-1.15;100.00;99776.38;6192321;23;20209;-84
2023/01/28 07:27:44;;;;;;;22.17;14.10;;;;;;;-1.09;100.00;99775.81;6189767;23;20220;-88
2023/01/28 07:30:14;;;;;;;23.77;14.50;;;;;;;-1.05;100.00;99787.72;6190966;23;20574;-84
2023/01/28 07:32:41;;;;;;;21.50;12.57;;;;;;;-0.97;100.00;99779.94;6215483;23;20205;-85
2023/01/28 07:35:08;;;;;;;23.00;14.20;;;;;;;-0.97;100.00;99779.09;6215549;23;20229;-83
2023/01/28 07:37:35;;;;;;;23.77;13.10;;;;;;;-0.91;100.00;99779.38;6217269;23;20205;-82
2023/01/28 07:40:02;;;;;;;25.60;14.37;;;;;;;-1.05;100.00;99792.97;6177232;23;20205;-81
2023/01/28 07:42:29;;;;;;;24.57;14.77;;;;;;;-0.98;100.00;99780.91;6191368;23;20205;-86
2023/01/28 07:44:59;;;;;;;24.40;14.67;;;;;;;-0.99;100.00;99802.09;6191947;23;20547;-85
2023/01/28 07:47:26;;;;;;;24.00;13.90;;;;;;;-1.01;100.00;99796.16;6176603;23;20211;-81
2023/01/28 07:49:52;;;;;;;24.90;15.33;;;;;;;-1.01;100.00;99804.88;6160622;23;20237;-84
2023/01/28 07:52:19;;;;;;;25.33;15.13;;;;;;;-1.11;100.00;99808.47;6212681;23;20285;-83
2023/01/28 07:54:46;;;;;;;30.37;17.83;;;;;;;-1.01;100.00;99811.94;6190736;23;20206;-84
2023/01/28 07:57:12;;;;;;;24.63;15.10;;;;;;;-1.01;100.00;99814.56;6189995;23;20214;-82
2023/01/28 07:59:39;;;;;;;24.80;15.60;;;;;;;-1.08;100.00;99802.97;6191148;23;20209;-82
2023/01/28 08:02:10;;;;;;;24.47;15.57;;;;;;;-1.11;100.00;99817.19;6186207;23;20209;-82
2023/01/28 08:04:39;;;;;;;23.70;14.10;;;;;;;-0.97;100.00;99822.03;6222845;23;20252;-82
2023/01/28 08:07:06;;;;;;;20.30;12.43;;;;;;;-0.95;100.00;99817.47;6197663;23;20233;-82
2023/01/28 08:09:34;;;;;;;23.60;14.47;;;;;;;-0.94;100.00;99821.75;6166272;23;20807;-83
2023/01/28 08:12:01;;;;;;;22.70;14.70;;;;;;;-1.00;100.00;99818.84;6217378;23;20214;-79
2023/01/28 08:14:28;;;;;;;26.00;14.53;;;;;;;-0.97;100.00;99808.88;6171262;23;20210;-82
2023/01/28 08:16:55;;;;;;;23.87;14.83;;;;;;;-0.98;100.00;99822.19;6216323;23;20710;-83
2023/01/28 08:19:22;;;;;;;21.70;14.40;;;;;;;-1.01;100.00;99825.91;6169219;23;20202;-82
2023/01/28 08:21:49;;;;;;;25.77;15.30;;;;;;;-0.97;100.00;99827.28;6198334;23;20349;-80
2023/01/28 08:24:16;;;;;;;23.63;14.73;;;;;;;-0.89;100.00;99829.22;6194999;23;20650;-82
2023/01/28 08:26:43;;;;;;;24.00;14.00;;;;;;;-0.92;100.00;99827.69;6197267;23;20206;-83
2023/01/28 08:29:11;;;;;;;25.03;14.53;;;;;;;-0.90;100.00;99836.28;6174297;23;20210;-81
2023/01/28 08:31:38;;;;;;;22.77;14.70;;;;;;;-0.80;100.00;99835.44;6199102;23;20257;-82
2023/01/28 08:34:05;;;;;;;25.07;14.83;;;;;;;-0.80;100.00;99841.53;6179465;23;20237;-82
2023/01/28 08:36:31;;;;;;;23.30;14.73;;;;;;;-0.83;100.00;99836.53;6192281;23;20264;-82
2023/01/28 08:38:58;;;;;;;22.90;15.00;;;;;;;-0.74;100.00;99845.34;6200083;23;20202;-82
2023/01/28 08:41:25;;;;;;;25.40;14.53;;;;;;;-0.81;100.00;99847.75;6198430;23;20248;-82
2023/01/28 08:43:52;;;;;;;29.07;15.00;;;;;;;-0.76;100.00;99847.31;6214982;23;20697;-82
2023/01/28 08:46:19;;;;;;;26.13;15.03;;;;;;;-0.57;100.00;99861.25;6196264;23;20241;-83
2023/01/28 08:48:49;;;;;;;25.93;14.53;;;;;;;-0.62;100.00;99854.75;6163606;23;20213;-83
2023/01/28 08:51:16;;;;;;;34.70;21.57;;;;;;;-0.60;100.00;99853.63;6150826;23;20238;-82
2023/01/28 09:02:26;;;;;;;24.50;15.23;;;;;;;-0.49;100.00;99847.38;6165402;23;20544;-82
2023/01/28 09:04:59;;;;;;;25.97;15.17;;;;;;;-0.53;100.00;99844.22;6177559;22;20209;-80
2023/01/28 09:07:26;;;;;;;26.13;16.43;;;;;;;-0.51;100.00;99854.56;6234490;22;20227;-83
2023/01/28 09:09:53;;;;;;;26.97;16.17;;;;;;;-0.45;100.00;99854.00;6153607;23;20189;-82
2023/01/28 09:12:20;;;;;;;26.17;16.23;;;;;;;-0.43;100.00;99853.88;6172860;23;20252;-81
2023/01/28 09:14:47;;;;;;;23.27;15.23;;;;;;;-0.53;100.00;99869.69;6169962;23;20701;-81
2023/01/28 09:17:14;;;;;;;22.93;15.63;;;;;;;-0.44;100.00;99863.56;6198572;23;20214;-81
2023/01/28 09:19:40;;;;;;;22.10;15.10;;;;;;;-0.35;100.00;99869.78;6198837;23;20193;-81
2023/01/28 09:22:07;;;;;;;21.83;13.60;;;;;;;-0.19;100.00;99862.09;6228882;23;20209;-80
2023/01/28 09:24:34;;;;;;;23.07;14.03;;;;;;;-0.18;100.00;99869.00;6214498;23;20208;-80
2023/01/28 09:27:04;;;;;;;24.07;14.10;;;;;;;-0.14;100.00;99868.56;6214977;23;20539;-79
2023/01/28 09:29:32;;;;;;;21.57;13.57;;;;;;;0.02;100.00;99875.00;6214799;23;20415;-79
2023/01/28 09:32:00;;;;;;;21.93;12.97;;;;;;;0.00;100.00;99885.72;6225028;23;20213;-80
2023/01/28 09:34:27;;;;;;;20.93;12.77;;;;;;;0.02;100.00;99873.22;6221671;23;20259;-83
2023/01/28 09:36:55;;;;;;;20.93;12.53;;;;;;;0.03;100.00;99881.94;6225675;23;20266;-81
2023/01/28 09:39:24;;;;;;;27.30;14.33;;;;;;;0.02;100.00;99875.84;6225953;23;20223;-81
2023/01/28 09:41:57;;;;;;;21.37;13.80;;;;;;;-0.11;100.00;99881.47;6252629;23;20208;-82
2023/01/28 11:44:24;;;;;;;24.77;14.87;;;;;;;-0.47;100.00;99863.88;6262522;22;20236;-89
2023/01/28 23:33:06;;;;;;;9.53;7.33;;;;;;;-0.15;100.00;100293.59;6262201;22;20200;-90
2023/01/28 23:36:22;;;;;;;10.30;8.00;;;;;;;-0.14;100.00;100295.22;6228697;22;20256;-90
2023/01/28 23:39:34;;;;;;;10.97;8.17;;;;;;;-0.27;100.00;100292.00;6264946;22;20204;-90
